createdAt,value
2022-12-14T00:01:57.285Z,9.70
2022-12-14T00:04:25.301Z,7.37
2022-12-14T00:06:54.684Z,9.40
2022-12-14T00:09:22.835Z,6.57
2022-12-14T00:11:50.854Z,7.07
2022-12-14T00:14:18.865Z,6.20
2022-12-14T00:16:46.886Z,8.00
2022-12-14T00:19:15.589Z,7.20
2022-12-14T00:21:43.593Z,7.90
2022-12-14T00:24:12.958Z,7.33
2022-12-14T00:26:41.005Z,4.93
2022-12-14T00:29:09.006Z,7.13
2022-12-14T00:31:37.365Z,6.60
2022-12-14T00:34:05.453Z,4.73
2022-12-14T00:36:33.490Z,6.80
2022-12-14T00:39:01.487Z,9.33
2022-12-14T00:41:30.876Z,6.63
2022-12-14T00:43:58.879Z,10.97
2022-12-14T00:46:26.900Z,11.30
2022-12-14T00:48:54.934Z,6.70
2022-12-14T00:51:23.296Z,7.00
2022-12-14T00:53:51.358Z,7.80
2022-12-14T00:56:19.455Z,7.57
2022-12-14T00:58:52.772Z,6.70
2022-12-14T01:01:22.223Z,4.60
2022-12-14T01:03:50.817Z,5.90
2022-12-14T01:06:20.869Z,6.40
2022-12-14T01:08:49.428Z,7.30
2022-12-14T01:11:17.494Z,7.40
2022-12-14T01:13:49.109Z,7.70
2022-12-14T01:16:19.025Z,10.97
2022-12-14T01:18:47.316Z,8.50
2022-12-14T01:21:17.349Z,10.00
2022-12-14T01:23:46.770Z,9.10
2022-12-14T01:26:17.024Z,9.60
2022-12-14T01:28:45.957Z,12.80
2022-12-14T01:31:16.624Z,9.07
2022-12-14T01:33:46.481Z,14.23
2022-12-14T01:36:16.258Z,11.00
2022-12-14T01:38:44.544Z,7.00
2022-12-14T01:41:24.476Z,14.43
2022-12-14T01:43:54.726Z,13.33
2022-12-14T01:46:27.898Z,10.30
2022-12-14T01:49:03.096Z,6.00
2022-12-14T01:51:33.551Z,10.93
2022-12-14T01:54:03.056Z,7.57
2022-12-14T01:56:32.386Z,8.40
2022-12-14T01:59:05.482Z,8.70
2022-12-14T02:01:33.990Z,10.60
2022-12-14T02:04:05.432Z,7.47
2022-12-14T02:06:36.184Z,7.73
2022-12-14T02:09:06.803Z,10.33
2022-12-14T02:11:45.129Z,12.20
2022-12-14T02:14:13.131Z,7.77
2022-12-14T02:16:42.075Z,6.60
2022-12-14T02:19:11.652Z,6.60
2022-12-14T02:22:02.194Z,5.93
2022-12-14T02:25:01.466Z,6.47
2022-12-14T02:28:04.438Z,7.10
2022-12-14T02:30:38.208Z,5.77
2022-12-14T02:33:21.857Z,9.63
2022-12-14T02:35:54.301Z,7.30
2022-12-14T02:38:42.195Z,8.47
2022-12-14T02:41:16.305Z,6.07
2022-12-14T02:43:51.748Z,5.43
2022-12-14T02:46:27.172Z,6.70
2022-12-14T02:49:00.302Z,8.57
2022-12-14T02:51:39.316Z,6.83
2022-12-14T02:54:13.303Z,9.20
2022-12-14T02:56:46.269Z,7.73
2022-12-14T02:59:17.048Z,7.83
2022-12-14T03:01:48.716Z,8.70
2022-12-14T03:04:17.685Z,11.07
2022-12-14T03:06:57.806Z,7.53
2022-12-14T03:09:28.317Z,6.87
2022-12-14T03:11:59.599Z,6.60
2022-12-14T03:14:32.105Z,8.13
2022-12-14T03:17:05.762Z,6.77
2022-12-14T03:19:39.469Z,7.03
2022-12-14T03:22:10.510Z,10.50
2022-12-14T03:24:42.740Z,5.47
2022-12-14T03:27:16.553Z,7.50
2022-12-14T03:29:48.517Z,7.07
2022-12-14T03:32:20.937Z,6.10
2022-12-14T03:34:53.858Z,5.90
2022-12-14T03:37:27.570Z,6.63
2022-12-14T03:39:55.624Z,6.40
2022-12-14T03:42:26.793Z,10.60
2022-12-14T03:45:02.092Z,5.90
2022-12-14T03:47:54.788Z,9.17
2022-12-14T03:50:25.962Z,4.33
2022-12-14T03:52:59.852Z,4.93
2022-12-14T03:55:33.126Z,5.27
2022-12-14T03:58:14.043Z,6.87
2022-12-14T04:00:48.985Z,8.00
2022-12-14T04:03:27.277Z,4.90
2022-12-14T04:06:00.346Z,7.37
2022-12-14T04:08:34.924Z,7.83
2022-12-14T04:11:23.413Z,7.20
2022-12-14T04:14:16.778Z,6.20
2022-12-14T04:17:05.201Z,11.10
2022-12-14T04:19:40.796Z,8.17
2022-12-14T04:22:12.471Z,7.27
2022-12-14T04:25:04.346Z,9.00
2022-12-14T04:27:36.284Z,5.27
2022-12-14T04:30:06.099Z,11.93
2022-12-14T04:32:38.025Z,8.40
2022-12-14T04:35:13.100Z,6.50
2022-12-14T04:37:45.285Z,10.20
2022-12-14T04:40:20.011Z,4.17
2022-12-14T04:42:53.543Z,9.30
2022-12-14T04:45:27.697Z,7.43
2022-12-14T04:48:01.374Z,8.23
2022-12-14T04:50:36.432Z,6.97
2022-12-14T04:53:11.513Z,8.83
2022-12-14T04:55:44.651Z,6.63
2022-12-14T04:58:17.799Z,10.07
2022-12-14T05:00:59.379Z,6.27
2022-12-14T05:03:32.290Z,5.73
2022-12-14T05:06:09.644Z,5.27
2022-12-14T05:08:56.684Z,7.93
2022-12-14T05:14:22.150Z,6.90
2022-12-14T05:16:50.972Z,6.10
2022-12-14T05:19:19.143Z,9.00
2022-12-14T05:21:48.525Z,8.10
2022-12-14T05:24:17.682Z,6.87
2022-12-14T05:26:46.120Z,6.70
2022-12-14T05:29:14.971Z,8.20
2022-12-14T05:31:43.029Z,6.30
2022-12-14T05:34:17.757Z,7.87
2022-12-14T05:36:45.819Z,6.87
2022-12-14T05:39:16.073Z,6.73
2022-12-14T05:41:44.391Z,6.50
2022-12-14T05:44:12.506Z,11.17
2022-12-14T05:46:40.538Z,7.43
2022-12-14T05:49:08.628Z,8.13
2022-12-14T05:51:36.651Z,8.90
2022-12-14T05:54:05.311Z,8.77
2022-12-14T05:56:34.642Z,7.10
2022-12-14T05:59:03.479Z,8.80
2022-12-14T06:01:31.750Z,8.33
2022-12-14T06:03:59.955Z,8.73
2022-12-14T06:06:28.080Z,10.53
2022-12-14T06:08:56.325Z,5.30
2022-12-14T06:11:24.750Z,6.40
2022-12-14T06:13:54.136Z,10.30
2022-12-14T06:16:23.952Z,8.17
2022-12-14T06:18:53.693Z,10.87
2022-12-14T06:21:24.126Z,10.07
2022-12-14T06:23:52.311Z,9.75
2022-12-14T06:26:20.430Z,9.77
2022-12-14T06:28:48.503Z,9.50
2022-12-14T06:31:19.944Z,10.93
2022-12-14T06:33:48.286Z,11.27
2022-12-14T06:36:19.720Z,10.77
2022-12-14T06:38:48.009Z,8.60
2022-12-14T06:41:16.030Z,10.83
2022-12-14T06:43:44.249Z,7.63
2022-12-14T06:46:15.713Z,7.60
2022-12-14T06:48:49.527Z,7.80
2022-12-14T06:51:18.092Z,8.20
2022-12-14T06:53:46.316Z,8.57
2022-12-14T06:56:17.504Z,11.73
2022-12-14T06:58:46.428Z,11.80
2022-12-14T07:01:17.578Z,8.77
2022-12-14T07:03:49.673Z,9.67
2022-12-14T07:06:18.450Z,6.73
2022-12-14T07:08:46.592Z,8.97
2022-12-14T07:11:16.980Z,11.43
2022-12-14T07:13:45.140Z,8.40
2022-12-14T07:16:19.123Z,11.47
2022-12-14T07:18:48.760Z,7.33
2022-12-14T07:21:18.185Z,14.07
2022-12-14T07:23:47.446Z,8.90
2022-12-14T07:26:17.388Z,15.43
2022-12-14T07:28:46.174Z,10.00
2022-12-14T07:31:16.355Z,10.33
2022-12-14T07:33:44.453Z,9.60
2022-12-14T07:36:15.755Z,7.80
2022-12-14T07:38:45.652Z,10.77
2022-12-14T07:41:20.407Z,8.57
2022-12-14T07:43:50.373Z,11.10
2022-12-14T07:46:20.555Z,11.47
2022-12-14T07:48:50.618Z,11.30
2022-12-14T07:51:22.238Z,8.83
2022-12-14T07:53:51.006Z,9.40
2022-12-14T07:56:21.562Z,8.10
2022-12-14T07:58:49.751Z,8.13
2022-12-14T08:01:19.642Z,8.17
2022-12-14T08:03:49.232Z,8.87
2022-12-14T08:06:20.009Z,8.80
2022-12-14T08:08:49.218Z,10.20
2022-12-14T08:11:17.979Z,7.40
2022-12-14T08:13:46.835Z,9.87
2022-12-14T08:16:16.793Z,7.33
2022-12-14T08:18:45.192Z,9.00
2022-12-14T08:21:15.384Z,8.47
2022-12-14T08:23:44.752Z,10.57
2022-12-14T08:26:12.778Z,11.03
2022-12-14T08:28:40.916Z,9.50
2022-12-14T08:31:10.635Z,17.50
2022-12-14T08:33:40.028Z,8.83
2022-12-14T08:36:10.694Z,9.20
2022-12-14T08:38:38.954Z,8.47
2022-12-14T08:41:10.409Z,8.50
2022-12-14T08:43:39.028Z,9.50
2022-12-14T08:46:08.449Z,7.43
2022-12-14T08:48:36.627Z,9.07
2022-12-14T08:51:06.056Z,10.23
2022-12-14T08:53:34.551Z,14.60
2022-12-14T08:56:05.838Z,12.13
2022-12-14T08:58:35.507Z,9.17
2022-12-14T09:01:04.567Z,10.40
2022-12-14T09:03:33.451Z,10.93
2022-12-14T09:06:05.444Z,12.25
2022-12-14T09:08:34.002Z,12.00
2022-12-14T09:11:02.691Z,8.83
2022-12-14T09:13:31.403Z,8.20
2022-12-14T09:16:02.984Z,13.03
2022-12-14T09:18:34.406Z,10.33
2022-12-14T09:21:02.741Z,9.53
2022-12-14T09:23:32.953Z,9.93
2022-12-14T09:26:03.151Z,8.10
2022-12-14T09:28:31.919Z,10.80
2022-12-14T09:31:02.963Z,13.53
2022-12-14T09:33:31.700Z,9.83
2022-12-14T09:36:03.917Z,10.20
2022-12-14T09:38:33.799Z,10.40
2022-12-14T09:41:07.189Z,15.03
2022-12-14T09:43:43.419Z,11.75
2022-12-14T09:46:23.925Z,12.40
2022-12-14T09:48:53.070Z,10.43
2022-12-14T09:51:22.888Z,9.67
2022-12-14T09:54:02.176Z,13.07
2022-12-14T09:56:31.125Z,9.23
2022-12-14T09:59:01.910Z,14.30
2022-12-14T10:02:28.991Z,10.43
2022-12-14T10:04:53.507Z,10.00
2022-12-14T10:07:34.242Z,11.43
2022-12-14T10:10:10.700Z,12.03
2022-12-14T10:12:50.532Z,13.30
2022-12-14T10:15:28.213Z,9.60
2022-12-14T10:18:57.016Z,9.90
2022-12-14T10:21:13.907Z,11.83
2022-12-14T10:23:48.247Z,11.13
2022-12-14T10:26:20.339Z,11.63
2022-12-14T10:29:00.908Z,13.07
2022-12-14T10:31:34.520Z,15.53
2022-12-14T10:34:13.566Z,13.07
2022-12-14T10:36:52.351Z,9.93
2022-12-14T10:39:27.404Z,11.03
2022-12-14T10:42:03.746Z,14.63
2022-12-14T10:44:39.979Z,10.17
2022-12-14T10:47:16.894Z,13.23
2022-12-14T10:49:54.890Z,10.83
2022-12-14T10:52:27.162Z,9.30
2022-12-14T10:54:59.877Z,10.10
2022-12-14T10:57:29.378Z,11.10
2022-12-14T11:00:08.589Z,9.80
2022-12-14T11:02:42.376Z,11.53
2022-12-14T11:05:35.769Z,10.23
2022-12-14T11:08:06.661Z,9.20
2022-12-14T11:10:36.061Z,7.90
2022-12-14T11:13:07.044Z,8.63
2022-12-14T11:15:37.700Z,8.17
2022-12-14T11:18:17.493Z,9.73
2022-12-14T11:20:52.056Z,9.00
2022-12-14T11:23:22.451Z,15.47
2022-12-14T11:25:52.554Z,15.47
2022-12-14T11:28:35.941Z,8.90
2022-12-14T11:31:07.757Z,9.93
2022-12-14T11:33:39.759Z,10.27
2022-12-14T11:36:10.230Z,9.97
2022-12-14T11:38:38.288Z,8.77
2022-12-14T11:41:11.569Z,11.87
2022-12-14T11:43:41.160Z,10.20
2022-12-14T11:46:09.444Z,9.20
2022-12-14T11:48:39.222Z,10.10
2022-12-14T11:51:13.693Z,8.70
2022-12-14T11:53:42.398Z,9.83
2022-12-14T11:56:15.908Z,9.13
2022-12-14T11:58:51.003Z,9.60
2022-12-14T12:01:25.207Z,9.07
2022-12-14T12:03:56.830Z,12.77
2022-12-14T12:06:28.551Z,12.10
2022-12-14T12:08:59.443Z,8.80
2022-12-14T12:11:31.898Z,10.80
2022-12-14T12:14:02.655Z,7.43
2022-12-14T12:16:33.068Z,10.33
2022-12-14T12:19:11.868Z,8.73
2022-12-14T12:21:44.623Z,11.70
2022-12-14T12:24:19.374Z,10.00
2022-12-14T12:26:51.192Z,10.27
2022-12-14T12:29:25.086Z,8.40
2022-12-14T12:31:57.547Z,10.13
2022-12-14T12:34:29.802Z,7.63
2022-12-14T12:37:25.788Z,11.37
2022-12-14T12:39:58.459Z,10.50
2022-12-14T12:42:37.920Z,10.53
2022-12-14T12:45:13.961Z,10.90
2022-12-14T12:47:47.536Z,9.93
2022-12-14T12:50:18.559Z,8.83
2022-12-14T12:53:02.397Z,9.90
2022-12-14T12:55:35.438Z,8.30
2022-12-14T12:58:09.669Z,8.97
2022-12-14T13:00:41.112Z,6.10
2022-12-14T13:03:14.365Z,10.77
2022-12-14T13:05:46.770Z,10.47
2022-12-14T13:08:23.151Z,10.07
2022-12-14T13:13:43.955Z,7.40
2022-12-14T13:16:16.244Z,8.00
2022-12-14T13:19:01.839Z,10.87
2022-12-14T13:21:44.116Z,11.70
2022-12-14T13:24:21.425Z,9.50
2022-12-14T13:27:17.756Z,10.47
2022-12-14T13:30:04.450Z,9.63
2022-12-14T13:32:43.323Z,10.53
2022-12-14T13:35:26.703Z,12.03
2022-12-14T13:38:33.404Z,8.90
2022-12-14T13:41:20.830Z,11.93
2022-12-14T13:44:02.473Z,11.50
2022-12-14T13:46:31.454Z,11.07
2022-12-14T13:49:03.760Z,12.77
2022-12-14T13:51:35.420Z,12.03
2022-12-14T13:54:07.319Z,14.87
2022-12-14T13:56:40.119Z,9.97
2022-12-14T13:59:25.710Z,10.13
2022-12-14T14:01:57.939Z,11.30
2022-12-14T14:04:28.529Z,11.73
2022-12-14T14:06:57.943Z,11.83
2022-12-14T14:10:00.298Z,12.32
2022-12-14T14:12:44.878Z,8.10
2022-12-14T14:15:31.358Z,10.97
2022-12-14T14:18:13.368Z,12.90
2022-12-14T14:20:42.958Z,10.67
2022-12-14T14:23:35.677Z,13.97
2022-12-14T14:26:26.159Z,11.90
2022-12-14T14:29:24.824Z,9.63
2022-12-14T14:31:56.575Z,13.37
2022-12-14T14:34:46.130Z,10.33
2022-12-14T14:37:26.814Z,11.97
2022-12-14T14:40:25.940Z,12.57
2022-12-14T14:43:05.691Z,11.23
2022-12-14T14:45:48.577Z,10.33
2022-12-14T14:48:33.780Z,11.87
2022-12-14T14:51:15.461Z,10.23
2022-12-14T14:53:44.014Z,10.30
2022-12-14T14:56:37.079Z,8.57
2022-12-14T14:59:51.480Z,15.37
2022-12-14T15:02:34.628Z,14.13
2022-12-14T15:05:33.287Z,14.20
2022-12-14T15:07:55.906Z,11.53
2022-12-14T15:10:32.105Z,12.57
2022-12-14T15:13:03.676Z,14.93
2022-12-14T15:15:37.839Z,12.27
2022-12-14T15:18:22.880Z,15.90
2022-12-14T15:21:02.823Z,13.70
2022-12-14T15:23:36.425Z,14.67
2022-12-14T15:26:16.353Z,12.47
2022-12-14T15:28:48.604Z,15.13
2022-12-14T15:31:16.798Z,12.90
2022-12-14T15:33:48.893Z,10.60
2022-12-14T15:36:19.043Z,8.80
2022-12-14T15:38:55.223Z,11.97
2022-12-14T15:41:24.766Z,7.40
2022-12-14T15:43:58.193Z,8.73
2022-12-14T15:46:30.252Z,8.47
2022-12-14T15:49:01.409Z,11.47
2022-12-14T15:51:33.187Z,10.50
2022-12-14T15:54:04.170Z,10.27
2022-12-14T15:56:34.817Z,11.87
2022-12-14T15:59:05.254Z,14.63
2022-12-14T16:01:38.479Z,13.63
2022-12-14T16:04:15.267Z,16.23
2022-12-14T16:06:49.373Z,13.90
2022-12-14T16:09:24.685Z,15.67
2022-12-14T16:11:56.267Z,9.63
2022-12-14T16:14:27.106Z,12.83
2022-12-14T16:16:55.548Z,12.10
2022-12-14T16:19:29.045Z,11.33
2022-12-14T16:22:14.250Z,10.70
2022-12-14T16:25:16.681Z,11.87
2022-12-14T16:27:50.041Z,11.53
2022-12-14T16:30:22.799Z,14.17
2022-12-14T16:32:52.936Z,13.00
2022-12-14T16:35:26.085Z,14.10
2022-12-14T16:37:56.384Z,14.17
2022-12-14T16:40:34.526Z,10.53
2022-12-14T16:43:02.890Z,10.63
2022-12-14T16:46:11.944Z,12.70
2022-12-14T16:48:43.386Z,10.90
2022-12-14T16:52:06.332Z,8.93
2022-12-14T16:54:32.620Z,14.10
2022-12-14T16:57:04.071Z,13.93
2022-12-14T16:59:40.610Z,11.77
2022-12-14T17:02:26.089Z,8.83
2022-12-14T17:04:54.783Z,8.53
2022-12-14T17:07:27.131Z,8.13
2022-12-14T17:09:56.340Z,10.33
2022-12-14T17:12:26.001Z,11.10
2022-12-14T17:14:54.407Z,10.47
2022-12-14T17:17:29.160Z,11.00
2022-12-14T17:19:57.239Z,10.90
2022-12-14T17:22:30.847Z,12.80
2022-12-14T17:24:59.290Z,11.03
2022-12-14T17:27:27.817Z,8.03
2022-12-14T17:29:57.172Z,10.13
2022-12-14T17:32:29.541Z,10.80
2022-12-14T17:34:57.976Z,9.80
2022-12-14T17:37:34.149Z,14.90
2022-12-14T17:40:05.346Z,10.13
2022-12-14T17:42:33.470Z,10.97
2022-12-14T17:45:01.866Z,9.00
2022-12-14T17:47:29.945Z,10.60
2022-12-14T17:49:57.949Z,7.63
2022-12-14T17:52:31.674Z,8.17
2022-12-14T17:54:59.864Z,12.10
2022-12-14T17:57:27.978Z,7.90
2022-12-14T18:00:16.057Z,8.90
2022-12-14T18:02:45.689Z,8.70
2022-12-14T18:05:19.677Z,7.03
2022-12-14T18:07:49.831Z,10.60
2022-12-14T18:10:19.419Z,10.30
2022-12-14T18:12:47.467Z,12.67
2022-12-14T18:15:19.267Z,9.50
2022-12-14T18:17:49.403Z,10.27
2022-12-14T18:20:19.167Z,14.10
2022-12-14T18:22:50.165Z,13.43
2022-12-14T18:25:28.305Z,14.53
2022-12-14T18:27:57.230Z,15.57
2022-12-14T18:30:25.587Z,21.80
2022-12-14T18:32:53.646Z,16.13
2022-12-14T18:35:24.228Z,17.30
2022-12-14T18:37:53.729Z,15.67
2022-12-14T18:40:24.741Z,18.20
2022-12-14T18:42:52.843Z,14.73
2022-12-14T18:45:23.187Z,12.97
2022-12-14T18:47:51.550Z,19.63
2022-12-14T18:50:20.110Z,15.23
2022-12-14T18:52:48.619Z,13.37
2022-12-14T18:55:20.324Z,12.13
2022-12-14T18:57:50.094Z,11.80
2022-12-14T19:00:21.462Z,11.67
2022-12-14T19:02:50.307Z,13.00
2022-12-14T19:05:25.641Z,13.70
2022-12-14T19:07:54.837Z,11.87
2022-12-14T19:10:26.386Z,11.57
2022-12-14T19:12:54.867Z,13.33
2022-12-14T19:15:24.593Z,15.50
2022-12-14T19:17:53.271Z,15.27
2022-12-14T19:20:22.360Z,11.77
2022-12-14T19:22:51.575Z,11.67
2022-12-14T19:25:20.652Z,12.00
2022-12-14T19:30:40.634Z,8.90
2022-12-14T19:33:08.675Z,10.40
2022-12-14T19:35:39.691Z,14.33
2022-12-14T19:38:08.278Z,21.20
2022-12-14T19:40:36.311Z,17.63
2022-12-14T19:43:05.655Z,12.40
2022-12-14T19:45:33.650Z,15.03
2022-12-14T19:48:01.778Z,14.03
2022-12-14T19:50:29.791Z,13.70
2022-12-14T19:52:57.826Z,17.20
2022-12-14T19:55:25.826Z,21.30
2022-12-14T19:57:53.858Z,30.23
2022-12-14T20:00:23.324Z,25.70
2022-12-14T20:02:51.439Z,22.23
2022-12-14T20:05:21.560Z,14.03
2022-12-14T20:07:49.569Z,11.37
2022-12-14T20:10:17.643Z,16.87
2022-12-14T20:12:45.734Z,12.80
2022-12-14T20:15:13.978Z,14.23
2022-12-14T20:17:43.311Z,11.40
2022-12-14T20:20:12.346Z,19.07
2022-12-14T20:22:40.599Z,29.87
2022-12-14T20:25:09.167Z,31.67
2022-12-14T20:27:40.672Z,20.50
2022-12-14T20:30:10.435Z,23.40
2022-12-14T20:32:40.635Z,24.17
2022-12-14T20:35:11.936Z,26.27
2022-12-14T20:37:39.895Z,40.00
2022-12-14T20:40:09.449Z,33.07
2022-12-14T20:42:37.500Z,25.20
2022-12-14T20:45:07.405Z,23.63
2022-12-14T20:47:35.695Z,28.33
2022-12-14T20:50:03.850Z,21.40
2022-12-14T20:52:33.201Z,15.10
2022-12-14T20:55:01.211Z,19.53
2022-12-14T20:57:32.973Z,18.00
2022-12-14T21:00:01.114Z,18.27
2022-12-14T21:02:29.252Z,12.17
2022-12-14T21:04:57.446Z,13.07
2022-12-14T21:07:26.507Z,13.10
2022-12-14T21:09:55.965Z,12.07
2022-12-14T21:12:23.064Z,9.83
2022-12-14T21:14:53.786Z,10.63
2022-12-14T21:17:23.366Z,10.57
2022-12-14T21:19:52.115Z,9.50
2022-12-14T21:22:22.679Z,10.60
2022-12-14T21:25:06.900Z,12.97
2022-12-14T21:27:39.261Z,16.40
2022-12-14T21:30:10.031Z,15.40
2022-12-14T21:32:38.941Z,16.70
2022-12-14T21:35:08.029Z,15.50
2022-12-14T21:37:38.877Z,14.67
2022-12-14T21:40:08.591Z,12.17
2022-12-14T21:42:36.948Z,18.00
2022-12-14T21:45:05.824Z,17.07
2022-12-14T21:47:34.586Z,20.87
2022-12-14T21:50:02.593Z,19.83
2022-12-14T21:52:30.846Z,10.47
2022-12-14T21:54:59.740Z,12.97
2022-12-14T21:57:50.542Z,12.43
2022-12-14T22:00:20.713Z,12.27
2022-12-14T22:02:48.992Z,12.30
2022-12-14T22:05:17.313Z,11.70
2022-12-14T22:07:45.600Z,13.87
2022-12-14T22:10:13.651Z,10.10
2022-12-14T22:12:41.679Z,11.57
2022-12-14T22:15:11.091Z,9.40
2022-12-14T22:17:40.487Z,11.43
2022-12-14T22:20:09.733Z,9.80
2022-12-14T22:22:37.821Z,10.37
2022-12-14T22:25:06.607Z,11.10
2022-12-14T22:27:34.622Z,12.00
2022-12-14T22:30:05.190Z,11.90
2022-12-14T22:32:33.171Z,11.40
2022-12-14T22:35:02.888Z,10.40
2022-12-14T22:37:30.952Z,10.43
2022-12-14T22:39:59.019Z,9.70
2022-12-14T22:42:27.018Z,6.73
2022-12-14T22:44:55.267Z,13.73
2022-12-14T22:47:23.300Z,13.43
2022-12-14T22:49:51.385Z,9.10
2022-12-14T22:52:24.698Z,9.40
2022-12-14T22:54:54.311Z,11.23
2022-12-14T22:57:22.907Z,9.53
2022-12-14T22:59:57.233Z,10.17
2022-12-14T23:02:25.937Z,10.07
2022-12-14T23:04:54.135Z,9.27
2022-12-14T23:07:23.709Z,9.07
2022-12-14T23:10:09.440Z,9.20
2022-12-14T23:12:54.787Z,11.13
2022-12-14T23:15:40.343Z,8.53
2022-12-14T23:18:26.641Z,13.03
2022-12-14T23:21:13.036Z,12.07
2022-12-14T23:24:02.456Z,20.80
2022-12-14T23:26:48.749Z,13.40
2022-12-14T23:29:34.622Z,12.03
2022-12-14T23:32:20.022Z,11.60
2022-12-14T23:35:05.393Z,13.53
2022-12-14T23:37:51.440Z,13.03
2022-12-14T23:40:38.690Z,10.40
2022-12-14T23:43:28.476Z,11.67
2022-12-14T23:46:14.369Z,11.33
2022-12-14T23:48:59.945Z,13.90
2022-12-14T23:51:45.453Z,12.97
2022-12-14T23:54:31.396Z,14.63
2022-12-14T23:57:18.171Z,18.17
